sensor_id;sensor_type;location;lat;lon;timestamp;pressure;altitude;pressure_sealevel;temperature;humidity
57086;BME280;42964;42.910;23.792;2023-01-29T00:04:46;97789.72;;;1.55;87.42
57086;BME280;42964;42.910;23.792;2023-01-29T00:09:45;97857.75;;;1.98;86.65
57086;BME280;42964;42.910;23.792;2023-01-29T00:14:44;97853.50;;;1.99;86.83
57086;BME280;42964;42.910;23.792;2023-01-29T00:19:43;97869.69;;;1.98;87.23
57086;BME280;42964;42.910;23.792;2023-01-29T00:24:42;97859.00;;;2.09;86.88
57086;BME280;42964;42.910;23.792;2023-01-29T00:29:42;97862.47;;;2.11;87.44
57086;BME280;42964;42.910;23.792;2023-01-29T00:34:41;97867.38;;;2.05;86.95
57086;BME280;42964;42.910;23.792;2023-01-29T00:39:40;97863.66;;;1.97;87.34
57086;BME280;42964;42.910;23.792;2023-01-29T00:44:39;97869.72;;;1.99;86.82
57086;BME280;42964;42.910;23.792;2023-01-29T00:49:56;97858.06;;;2.07;86.75
57086;BME280;42964;42.910;23.792;2023-01-29T00:54:57;97870.00;;;2.07;87.28
57086;BME280;42964;42.910;23.792;2023-01-29T00:59:56;97860.06;;;2.16;87.11
57086;BME280;42964;42.910;23.792;2023-01-29T01:04:56;97819.16;;;1.92;86.92
57086;BME280;42964;42.910;23.792;2023-01-29T01:09:54;97837.59;;;2.07;86.67
57086;BME280;42964;42.910;23.792;2023-01-29T01:15:12;97867.19;;;2.25;86.26
57086;BME280;42964;42.910;23.792;2023-01-29T01:20:11;97868.94;;;2.26;86.24
57086;BME280;42964;42.910;23.792;2023-01-29T01:25:10;97874.97;;;2.28;86.25
57086;BME280;42964;42.910;23.792;2023-01-29T01:30:13;97814.88;;;1.92;86.46
57086;BME280;42964;42.910;23.792;2023-01-29T01:35:12;97873.22;;;2.27;86.55
57086;BME280;42964;42.910;23.792;2023-01-29T01:50:22;97900.31;;;2.20;86.40
57086;BME280;42964;42.910;23.792;2023-01-29T01:55:25;97871.88;;;2.12;86.41
57086;BME280;42964;42.910;23.792;2023-01-29T02:00:25;97880.59;;;2.17;86.26
57086;BME280;42964;42.910;23.792;2023-01-29T02:05:25;97884.78;;;2.15;86.24
57086;BME280;42964;42.910;23.792;2023-01-29T02:10:45;97850.84;;;1.95;86.54
57086;BME280;42964;42.910;23.792;2023-01-29T02:15:45;97827.03;;;1.72;86.21
57086;BME280;42964;42.910;23.792;2023-01-29T02:21:30;97884.38;;;2.03;86.70
57086;BME280;42964;42.910;23.792;2023-01-29T02:26:39;97888.81;;;2.09;87.00
57086;BME280;42964;42.910;23.792;2023-01-29T02:31:45;97891.75;;;2.20;86.83
57086;BME280;42964;42.910;23.792;2023-01-29T02:37:08;97894.25;;;2.18;86.64
57086;BME280;42964;42.910;23.792;2023-01-29T02:42:33;97892.69;;;2.22;86.26
57086;BME280;42964;42.910;23.792;2023-01-29T02:47:47;97896.34;;;2.30;86.44
57086;BME280;42964;42.910;23.792;2023-01-29T02:58:28;97903.28;;;2.32;86.08
57086;BME280;42964;42.910;23.792;2023-01-29T03:03:33;97906.81;;;2.36;86.12
57086;BME280;42964;42.910;23.792;2023-01-29T03:08:42;97900.00;;;2.36;85.77
57086;BME280;42964;42.910;23.792;2023-01-29T03:14:07;97918.78;;;2.37;85.94
57086;BME280;42964;42.910;23.792;2023-01-29T03:19:15;97894.72;;;2.32;85.77
57086;BME280;42964;42.910;23.792;2023-01-29T03:24:25;97875.22;;;2.10;85.64
57086;BME280;42964;42.910;23.792;2023-01-29T03:29:47;97927.59;;;2.20;85.40
57086;BME280;42964;42.910;23.792;2023-01-29T03:35:09;97871.97;;;1.90;85.85
57086;BME280;42964;42.910;23.792;2023-01-29T03:40:11;97921.66;;;2.21;86.30
57086;BME280;42964;42.910;23.792;2023-01-29T03:45:28;97921.66;;;2.21;86.29
57086;BME280;42964;42.910;23.792;2023-01-29T03:55:51;97920.94;;;2.25;86.15
57086;BME280;42964;42.910;23.792;2023-01-29T04:00:57;97915.06;;;2.27;86.21
57086;BME280;42964;42.910;23.792;2023-01-29T04:06:12;97925.97;;;2.22;85.76
57086;BME280;42964;42.910;23.792;2023-01-29T04:11:17;97922.53;;;2.21;86.27
57086;BME280;42964;42.910;23.792;2023-01-29T04:16:26;97921.50;;;2.16;85.94
57086;BME280;42964;42.910;23.792;2023-01-29T04:21:26;97930.88;;;2.15;86.28
57086;BME280;42964;42.910;23.792;2023-01-29T04:27:26;97935.81;;;2.11;86.19
57086;BME280;42964;42.910;23.792;2023-01-29T04:33:17;97940.78;;;2.06;86.45
57086;BME280;42964;42.910;23.792;2023-01-29T04:38:11;97937.34;;;2.06;86.21
57086;BME280;42964;42.910;23.792;2023-01-29T04:43:29;97935.88;;;2.12;86.62
57086;BME280;42964;42.910;23.792;2023-01-29T04:54:08;97940.91;;;2.09;86.64
57086;BME280;42964;42.910;23.792;2023-01-29T04:59:16;97948.53;;;2.08;86.14
57086;BME280;42964;42.910;23.792;2023-01-29T05:04:19;97939.50;;;1.93;86.38
57086;BME280;42964;42.910;23.792;2023-01-29T05:09:19;97944.00;;;2.01;86.33
57086;BME280;42964;42.910;23.792;2023-01-29T05:14:19;97955.28;;;2.06;86.53
57086;BME280;42964;42.910;23.792;2023-01-29T05:19:19;97967.44;;;2.11;86.58
57086;BME280;42964;42.910;23.792;2023-01-29T05:24:23;97952.88;;;2.10;86.09
57086;BME280;42964;42.910;23.792;2023-01-29T05:29:22;97972.66;;;2.14;86.58
57086;BME280;42964;42.910;23.792;2023-01-29T05:34:21;97971.47;;;2.05;86.74
57086;BME280;42964;42.910;23.792;2023-01-29T05:39:20;97941.13;;;1.91;86.17
57086;BME280;42964;42.910;23.792;2023-01-29T05:44:19;97976.63;;;2.06;86.64
57086;BME280;42964;42.910;23.792;2023-01-29T05:49:18;97980.00;;;2.05;86.25
57086;BME280;42964;42.910;23.792;2023-01-29T05:54:18;97991.94;;;2.05;86.67
57086;BME280;42964;42.910;23.792;2023-01-29T05:59:17;97993.50;;;2.01;86.75
57086;BME280;42964;42.910;23.792;2023-01-29T06:04:16;97995.88;;;1.96;86.59
57086;BME280;42964;42.910;23.792;2023-01-29T06:09:15;98007.00;;;1.97;87.10
57086;BME280;42964;42.910;23.792;2023-01-29T06:14:14;98005.34;;;1.98;86.90
57086;BME280;42964;42.910;23.792;2023-01-29T06:19:13;98009.78;;;2.03;87.30
57086;BME280;42964;42.910;23.792;2023-01-29T06:24:12;98015.16;;;2.09;86.79
57086;BME280;42964;42.910;23.792;2023-01-29T06:29:11;98026.31;;;2.11;87.38
57086;BME280;42964;42.910;23.792;2023-01-29T06:34:09;98021.81;;;2.06;86.59
57086;BME280;42964;42.910;23.792;2023-01-29T06:39:08;98024.00;;;1.95;87.31
57086;BME280;42964;42.910;23.792;2023-01-29T06:44:07;98035.44;;;2.05;86.89
57086;BME280;42964;42.910;23.792;2023-01-29T06:49:06;98035.63;;;2.09;87.30
57086;BME280;42964;42.910;23.792;2023-01-29T06:54:05;97981.06;;;1.88;86.89
57086;BME280;42964;42.910;23.792;2023-01-29T06:59:06;98055.88;;;2.27;86.15
57086;BME280;42964;42.910;23.792;2023-01-29T07:04:05;98058.56;;;2.30;86.26
57086;BME280;42964;42.910;23.792;2023-01-29T07:09:03;98069.09;;;2.38;86.25
57086;BME280;42964;42.910;23.792;2023-01-29T07:14:03;98054.84;;;2.46;86.40
57086;BME280;42964;42.910;23.792;2023-01-29T07:19:02;98070.53;;;2.54;86.08
57086;BME280;42964;42.910;23.792;2023-01-29T07:24:01;98074.81;;;2.55;85.81
57086;BME280;42964;42.910;23.792;2023-01-29T07:29:00;98077.00;;;2.68;85.38
57086;BME280;42964;42.910;23.792;2023-01-29T07:33:59;98085.03;;;2.79;85.30
57086;BME280;42964;42.910;23.792;2023-01-29T07:38:58;98082.78;;;2.87;85.22
57086;BME280;42964;42.910;23.792;2023-01-29T07:43:57;98072.53;;;2.88;85.10
57086;BME280;42964;42.910;23.792;2023-01-29T07:48:57;98082.97;;;2.93;84.59
57086;BME280;42964;42.910;23.792;2023-01-29T07:53:56;98086.50;;;2.96;84.73
57086;BME280;42964;42.910;23.792;2023-01-29T07:58:55;98059.41;;;3.03;84.68
57086;BME280;42964;42.910;23.792;2023-01-29T08:03:54;98095.91;;;3.21;83.42
57086;BME280;42964;42.910;23.792;2023-01-29T08:08:53;98100.53;;;3.32;82.95
57086;BME280;42964;42.910;23.792;2023-01-29T08:13:53;98098.91;;;3.35;83.03
57086;BME280;42964;42.910;23.792;2023-01-29T08:18:52;98113.59;;;3.39;81.98
57086;BME280;42964;42.910;23.792;2023-01-29T08:23:51;98107.66;;;3.40;82.44
57086;BME280;42964;42.910;23.792;2023-01-29T08:28:50;98023.75;;;2.85;81.48
57086;BME280;42964;42.910;23.792;2023-01-29T08:33:49;98124.41;;;3.31;81.64
57086;BME280;42964;42.910;23.792;2023-01-29T08:38:48;98126.63;;;3.46;81.63
57086;BME280;42964;42.910;23.792;2023-01-29T08:43:47;98117.53;;;3.30;80.50
57086;BME280;42964;42.910;23.792;2023-01-29T08:48:47;98143.03;;;3.25;81.89
57086;BME280;42964;42.910;23.792;2023-01-29T08:53:45;98151.44;;;3.21;81.26
57086;BME280;42964;42.910;23.792;2023-01-29T08:58:44;98149.47;;;3.14;81.82
57086;BME280;42964;42.910;23.792;2023-01-29T09:03:43;98138.81;;;3.01;82.28
57086;BME280;42964;42.910;23.792;2023-01-29T09:08:43;98135.72;;;3.12;82.43
57086;BME280;42964;42.910;23.792;2023-01-29T09:13:42;98076.88;;;2.89;82.39
57086;BME280;42964;42.910;23.792;2023-01-29T09:18:41;98141.72;;;3.36;82.57
57086;BME280;42964;42.910;23.792;2023-01-29T09:23:40;98121.59;;;3.49;82.35
57086;BME280;42964;42.910;23.792;2023-01-29T09:28:39;98112.00;;;3.70;82.00
57086;BME280;42964;42.910;23.792;2023-01-29T09:33:38;98117.44;;;3.79;81.45
57086;BME280;42964;42.910;23.792;2023-01-29T09:38:37;98120.28;;;3.89;80.27
57086;BME280;42964;42.910;23.792;2023-01-29T09:43:44;98111.50;;;4.09;79.58
57086;BME280;42964;42.910;23.792;2023-01-29T09:48:49;98117.38;;;4.34;79.26
57086;BME280;42964;42.910;23.792;2023-01-29T09:54:05;98108.13;;;4.40;77.80
57086;BME280;42964;42.910;23.792;2023-01-29T09:59:11;98104.84;;;4.44;78.27
57086;BME280;42964;42.910;23.792;2023-01-29T10:25:20;98054.63;;;4.25;76.25
57086;BME280;42964;42.910;23.792;2023-01-29T10:35:40;98080.41;;;4.28;74.31
57086;BME280;42964;42.910;23.792;2023-01-29T11:02:13;98048.75;;;4.61;73.85
57086;BME280;42964;42.910;23.792;2023-01-29T11:07:15;98053.63;;;4.50;73.33
57086;BME280;42964;42.910;23.792;2023-01-29T11:12:21;98040.13;;;4.27;74.92
57086;BME280;42964;42.910;23.792;2023-01-29T11:17:25;98038.75;;;4.08;76.53
57086;BME280;42964;42.910;23.792;2023-01-29T11:22:26;98035.41;;;4.13;76.21
57086;BME280;42964;42.910;23.792;2023-01-29T11:27:25;98025.53;;;4.26;76.14
57086;BME280;42964;42.910;23.792;2023-01-29T11:32:29;97967.50;;;4.03;75.89
57086;BME280;42964;42.910;23.792;2023-01-29T11:37:35;98016.09;;;4.25;76.33
57086;BME280;42964;42.910;23.792;2023-01-29T11:42:35;98013.59;;;4.28;75.90
57086;BME280;42964;42.910;23.792;2023-01-29T11:47:34;97967.63;;;3.77;76.72
57086;BME280;42964;42.910;23.792;2023-01-29T11:52:34;98018.44;;;3.88;78.09
57086;BME280;42964;42.910;23.792;2023-01-29T11:57:40;98010.94;;;3.95;77.75
57086;BME280;42964;42.910;23.792;2023-01-29T12:02:46;98014.53;;;4.00;77.63
57086;BME280;42964;42.910;23.792;2023-01-29T12:07:49;97993.94;;;3.70;78.38
57086;BME280;42964;42.910;23.792;2023-01-29T12:12:48;98010.41;;;3.77;78.35
57086;BME280;42964;42.910;23.792;2023-01-29T12:17:52;98011.00;;;3.68;77.62
57086;BME280;42964;42.910;23.792;2023-01-29T12:33:45;98014.13;;;3.86;77.79
57086;BME280;42964;42.910;23.792;2023-01-29T12:38:47;98005.03;;;3.98;78.05
57086;BME280;42964;42.910;23.792;2023-01-29T12:43:49;98005.38;;;4.10;76.84
57086;BME280;42964;42.910;23.792;2023-01-29T12:48:51;97999.81;;;4.25;76.81
57086;BME280;42964;42.910;23.792;2023-01-29T12:54:13;97995.38;;;4.51;76.72
57086;BME280;42964;42.910;23.792;2023-01-29T12:59:19;98002.91;;;4.77;75.49
57086;BME280;42964;42.910;23.792;2023-01-29T13:04:35;97997.91;;;4.81;70.78
57086;BME280;42964;42.910;23.792;2023-01-29T13:09:38;98009.59;;;4.70;70.56
57086;BME280;42964;42.910;23.792;2023-01-29T13:14:47;97925.22;;;4.20;72.83
57086;BME280;42964;42.910;23.792;2023-01-29T13:19:49;98010.47;;;4.70;72.57
57086;BME280;42964;42.910;23.792;2023-01-29T13:24:50;98013.94;;;4.72;73.46
57086;BME280;42964;42.910;23.792;2023-01-29T13:29:50;97992.88;;;4.54;70.01
57086;BME280;42964;42.910;23.792;2023-01-29T13:34:50;98013.56;;;4.57;67.96
57086;BME280;42964;42.910;23.792;2023-01-29T13:39:52;98013.19;;;4.45;69.77
57086;BME280;42964;42.910;23.792;2023-01-29T13:44:55;98009.03;;;4.48;68.67
57086;BME280;42964;42.910;23.792;2023-01-29T13:50:20;98011.53;;;4.47;70.35
57086;BME280;42964;42.910;23.792;2023-01-29T13:55:40;98013.59;;;4.28;72.13
57086;BME280;42964;42.910;23.792;2023-01-29T14:05:57;98033.94;;;4.21;73.04
57086;BME280;42964;42.910;23.792;2023-01-29T14:11:33;98044.53;;;4.03;72.63
57086;BME280;42964;42.910;23.792;2023-01-29T14:16:34;98045.69;;;3.82;73.04
57086;BME280;42964;42.910;23.792;2023-01-29T14:21:35;98039.56;;;3.52;74.41
57086;BME280;42964;42.910;23.792;2023-01-29T14:37:02;98037.16;;;3.29;76.69
57086;BME280;42964;42.910;23.792;2023-01-29T14:42:31;98037.25;;;3.32;76.79
57086;BME280;42964;42.910;23.792;2023-01-29T14:52:37;98039.97;;;3.37;77.22
57086;BME280;42964;42.910;23.792;2023-01-29T14:57:37;98037.16;;;3.29;77.48
57086;BME280;42964;42.910;23.792;2023-01-29T15:02:38;98041.59;;;3.33;77.05
57086;BME280;42964;42.910;23.792;2023-01-29T15:07:45;98040.88;;;3.12;78.04
57086;BME280;42964;42.910;23.792;2023-01-29T15:18:16;98048.47;;;3.09;77.83
57086;BME280;42964;42.910;23.792;2023-01-29T15:23:27;98041.53;;;3.06;78.77
57086;BME280;42964;42.910;23.792;2023-01-29T15:28:31;98041.78;;;3.14;79.09
57086;BME280;42964;42.910;23.792;2023-01-29T15:33:32;98047.06;;;3.18;79.00
57086;BME280;42964;42.910;23.792;2023-01-29T15:38:33;98015.59;;;2.97;79.39
57086;BME280;42964;42.910;23.792;2023-01-29T15:43:36;98059.94;;;2.94;80.16
57086;BME280;42964;42.910;23.792;2023-01-29T15:48:42;98060.88;;;2.96;79.88
57086;BME280;42964;42.910;23.792;2023-01-29T15:53:57;98054.16;;;3.00;79.93
57086;BME280;42964;42.910;23.792;2023-01-29T15:58:59;98059.88;;;2.93;80.33
57086;BME280;42964;42.910;23.792;2023-01-29T16:04:01;98062.34;;;2.90;80.41
57086;BME280;42964;42.910;23.792;2023-01-29T16:09:01;98076.00;;;2.89;80.57
57086;BME280;42964;42.910;23.792;2023-01-29T16:14:02;98075.56;;;2.76;80.82
57086;BME280;42964;42.910;23.792;2023-01-29T16:19:19;98086.38;;;2.68;81.46
57086;BME280;42964;42.910;23.792;2023-01-29T16:24:18;98076.75;;;2.61;81.87
57086;BME280;42964;42.910;23.792;2023-01-29T16:29:29;98074.19;;;2.61;82.95
57086;BME280;42964;42.910;23.792;2023-01-29T16:39:37;98077.06;;;2.95;83.25
57086;BME280;42964;42.910;23.792;2023-01-29T16:44:39;98079.94;;;3.05;82.47
57086;BME280;42964;42.910;23.792;2023-01-29T16:49:41;98078.56;;;3.14;82.50
57086;BME280;42964;42.910;23.792;2023-01-29T16:54:41;98015.84;;;2.79;82.79
57086;BME280;42964;42.910;23.792;2023-01-29T16:59:41;98083.03;;;3.20;82.24
57086;BME280;42964;42.910;23.792;2023-01-29T17:04:41;98088.06;;;3.17;81.60
57086;BME280;42964;42.910;23.792;2023-01-29T17:09:40;98093.22;;;3.18;82.10
57086;BME280;42964;42.910;23.792;2023-01-29T17:15:01;98100.97;;;3.20;82.44
57086;BME280;42964;42.910;23.792;2023-01-29T17:20:12;98089.09;;;3.22;82.53
57086;BME280;42964;42.910;23.792;2023-01-29T17:25:14;98082.41;;;3.27;82.36
57086;BME280;42964;42.910;23.792;2023-01-29T17:30:16;98021.28;;;2.88;82.48
57086;BME280;42964;42.910;23.792;2023-01-29T17:35:15;98057.91;;;3.10;82.15
57086;BME280;42964;42.910;23.792;2023-01-29T17:40:32;98083.75;;;3.16;82.70
57086;BME280;42964;42.910;23.792;2023-01-29T17:45:33;98088.25;;;3.23;82.43
57086;BME280;42964;42.910;23.792;2023-01-29T17:50:33;98081.41;;;3.22;82.40
57086;BME280;42964;42.910;23.792;2023-01-29T17:55:32;98049.00;;;2.98;82.57
57086;BME280;42964;42.910;23.792;2023-01-29T18:00:31;98081.00;;;3.10;82.82
57086;BME280;42964;42.910;23.792;2023-01-29T18:05:30;98079.44;;;3.15;82.87
57086;BME280;42964;42.910;23.792;2023-01-29T18:10:29;98071.78;;;3.16;82.16
57086;BME280;42964;42.910;23.792;2023-01-29T18:15:28;98060.66;;;3.16;82.00
57086;BME280;42964;42.910;23.792;2023-01-29T18:20:27;98062.31;;;3.14;81.95
57086;BME280;42964;42.910;23.792;2023-01-29T18:25:27;98061.38;;;3.12;82.52
57086;BME280;42964;42.910;23.792;2023-01-29T18:30:26;98061.50;;;3.15;82.11
57086;BME280;42964;42.910;23.792;2023-01-29T18:35:26;98065.59;;;3.10;82.47
57086;BME280;42964;42.910;23.792;2023-01-29T18:40:25;98070.59;;;2.81;83.03
57086;BME280;42964;42.910;23.792;2023-01-29T18:45:25;98071.69;;;2.88;83.63
57086;BME280;42964;42.910;23.792;2023-01-29T18:50:24;98075.28;;;2.93;83.65
57086;BME280;42964;42.910;23.792;2023-01-29T18:55:24;98077.28;;;3.01;83.61
57086;BME280;42964;42.910;23.792;2023-01-29T19:00:24;98073.03;;;3.02;83.52
57086;BME280;42964;42.910;23.792;2023-01-29T19:05:23;98059.28;;;3.00;83.26
57086;BME280;42964;42.910;23.792;2023-01-29T19:10:23;98056.63;;;2.97;83.61
57086;BME280;42964;42.910;23.792;2023-01-29T19:15:22;98050.47;;;2.92;83.57
57086;BME280;42964;42.910;23.792;2023-01-29T19:20:21;98072.94;;;2.99;83.61
57086;BME280;42964;42.910;23.792;2023-01-29T19:25:20;98082.41;;;3.01;83.60
57086;BME280;42964;42.910;23.792;2023-01-29T19:30:19;98074.63;;;2.98;83.05
57086;BME280;42964;42.910;23.792;2023-01-29T19:35:18;98066.50;;;2.86;83.56
57086;BME280;42964;42.910;23.792;2023-01-29T19:40:17;98051.47;;;2.71;83.74
57086;BME280;42964;42.910;23.792;2023-01-29T19:45:16;98081.41;;;2.72;83.75
57086;BME280;42964;42.910;23.792;2023-01-29T19:50:15;98070.88;;;2.65;83.91
57086;BME280;42964;42.910;23.792;2023-01-29T19:55:14;98068.22;;;2.62;84.99
57086;BME280;42964;42.910;23.792;2023-01-29T20:00:13;98062.50;;;2.69;85.41
57086;BME280;42964;42.910;23.792;2023-01-29T20:05:13;98061.47;;;2.64;84.55
57086;BME280;42964;42.910;23.792;2023-01-29T20:10:14;98063.16;;;2.63;85.24
57086;BME280;42964;42.910;23.792;2023-01-29T20:15:16;98016.72;;;2.30;85.01
57086;BME280;42964;42.910;23.792;2023-01-29T20:20:15;98067.19;;;2.56;85.42
57086;BME280;42964;42.910;23.792;2023-01-29T20:25:15;98058.25;;;2.45;85.37
57086;BME280;42964;42.910;23.792;2023-01-29T20:30:14;98064.06;;;2.41;85.50
57086;BME280;42964;42.910;23.792;2023-01-29T20:35:13;98077.09;;;2.47;85.31
57086;BME280;42964;42.910;23.792;2023-01-29T20:40:12;98053.66;;;2.36;85.21
57086;BME280;42964;42.910;23.792;2023-01-29T20:45:13;98081.06;;;2.39;85.60
57086;BME280;42964;42.910;23.792;2023-01-29T20:50:15;98081.81;;;2.36;86.31
57086;BME280;42964;42.910;23.792;2023-01-29T20:55:14;98088.38;;;2.28;86.20
57086;BME280;42964;42.910;23.792;2023-01-29T21:00:14;98098.50;;;2.03;87.23
57086;BME280;42964;42.910;23.792;2023-01-29T21:05:13;98099.13;;;1.97;87.46
57086;BME280;42964;42.910;23.792;2023-01-29T21:10:12;98093.44;;;2.04;87.32
57086;BME280;42964;42.910;23.792;2023-01-29T21:15:12;98097.28;;;2.15;87.32
57086;BME280;42964;42.910;23.792;2023-01-29T21:20:11;98085.47;;;2.19;87.05
57086;BME280;42964;42.910;23.792;2023-01-29T21:25:10;98096.22;;;2.33;86.75
57086;BME280;42964;42.910;23.792;2023-01-29T21:30:09;98092.47;;;2.47;86.35
57086;BME280;42964;42.910;23.792;2023-01-29T21:35:08;98085.72;;;2.49;85.81
57086;BME280;42964;42.910;23.792;2023-01-29T21:40:07;98078.72;;;2.21;85.94
57086;BME280;42964;42.910;23.792;2023-01-29T21:45:07;98092.13;;;2.14;84.73
57086;BME280;42964;42.910;23.792;2023-01-29T21:50:07;98086.22;;;1.94;82.62
57086;BME280;42964;42.910;23.792;2023-01-29T21:55:06;98082.97;;;1.98;82.30
57086;BME280;42964;42.910;23.792;2023-01-29T22:00:06;98009.16;;;1.64;81.20
57086;BME280;42964;42.910;23.792;2023-01-29T22:05:06;98070.69;;;1.89;82.12
57086;BME280;42964;42.910;23.792;2023-01-29T22:10:05;98031.31;;;1.63;81.42
57086;BME280;42964;42.910;23.792;2023-01-29T22:15:05;98054.28;;;1.62;81.01
57086;BME280;42964;42.910;23.792;2023-01-29T22:20:06;98060.53;;;1.91;80.69
57086;BME280;42964;42.910;23.792;2023-01-29T22:25:05;98052.84;;;1.91;79.90
57086;BME280;42964;42.910;23.792;2023-01-29T22:30:04;98066.34;;;2.09;79.85
57086;BME280;42964;42.910;23.792;2023-01-29T22:35:04;98056.56;;;1.99;79.08
57086;BME280;42964;42.910;23.792;2023-01-29T22:40:03;98074.13;;;2.12;78.54
57086;BME280;42964;42.910;23.792;2023-01-29T22:45:02;98074.13;;;2.12;78.24
57086;BME280;42964;42.910;23.792;2023-01-29T22:50:02;98069.72;;;1.86;77.39
57086;BME280;42964;42.910;23.792;2023-01-29T22:55:01;98068.25;;;1.92;77.77
57086;BME280;42964;42.910;23.792;2023-01-29T23:00:00;98064.28;;;1.78;78.14
57086;BME280;42964;42.910;23.792;2023-01-29T23:04:59;98059.47;;;1.63;77.79
57086;BME280;42964;42.910;23.792;2023-01-29T23:09:58;98065.63;;;1.68;77.85
57086;BME280;42964;42.910;23.792;2023-01-29T23:14:57;98064.00;;;1.70;77.61
57086;BME280;42964;42.910;23.792;2023-01-29T23:19:55;98056.03;;;1.63;76.92
57086;BME280;42964;42.910;23.792;2023-01-29T23:24:54;98065.50;;;1.65;75.22
57086;BME280;42964;42.910;23.792;2023-01-29T23:29:53;98050.19;;;1.44;76.98
57086;BME280;42964;42.910;23.792;2023-01-29T23:34:52;98047.66;;;1.23;78.03
57086;BME280;42964;42.910;23.792;2023-01-29T23:39:51;98036.44;;;1.20;78.43
57086;BME280;42964;42.910;23.792;2023-01-29T23:44:50;98030.25;;;1.36;78.18
57086;BME280;42964;42.910;23.792;2023-01-29T23:49:49;98026.13;;;1.39;77.83
57086;BME280;42964;42.910;23.792;2023-01-29T23:54:50;98033.63;;;1.35;78.12
57086;BME280;42964;42.910;23.792;2023-01-29T23:59:49;98017.66;;;1.19;78.55
